N829QS LEBL-LPMA
Flight info
| Callsign | N829QS |
|---|---|
| Flight time | 2h 36m |
| Altitude | 41000 |
| Route | SENIA5F SENIA Z596 NEXAS N975 CJN DCT UREDI DCT ESP DCT GANSU DCT NARTA DCT RAKUN RAKUN1P |
| Aircraft | C700/M-SBDGHM1RWXY/LB2 |
Departure
| Time | 2026-05-05 17:44 |
|---|---|
| Airport | Josep Tarradellas Barcelona-El Prat Airport (LEBL) |
Arrival
| Time | 2026-05-05 20:21 |
|---|---|
| Airport | Cristiano Ronaldo International Airport (LPMA) |
| Time | Latitude | Longitude | Altitude | Speed | Heading |
|---|---|---|---|---|---|
| 2026-05-05 17:21 | 41.30747 | 2.08890 | 19 ft | 0 kts | 66° |
| 2026-05-05 17:27 | 41.30746 | 2.08887 | 17 ft | 3 kts | 67° |
| 2026-05-05 17:27 | 41.30741 | 2.08856 | 20 ft | 4 kts | 108° |
| 2026-05-05 17:28 | 41.30756 | 2.08831 | 19 ft | 4 kts | 152° |
| 2026-05-05 17:28 | 41.30774 | 2.08819 | 18 ft | 1 kts | 155° |
| 2026-05-05 17:28 | 41.30777 | 2.08817 | 18 ft | 0 kts | 155° |
| 2026-05-05 17:30 | 41.30770 | 2.08821 | 19 ft | 0 kts | 154° |
| 2026-05-05 17:30 | 41.30720 | 2.08852 | 18 ft | 7 kts | 154° |
| 2026-05-05 17:30 | 41.30654 | 2.08902 | 18 ft | 11 kts | 156° |
| 2026-05-05 17:31 | 41.30621 | 2.09002 | 14 ft | 15 kts | 108° |
| 2026-05-05 17:31 | 41.30529 | 2.09018 | 12 ft | 17 kts | 198° |
| 2026-05-05 17:31 | 41.30421 | 2.08965 | 12 ft | 13 kts | 210° |
| 2026-05-05 17:31 | 41.30359 | 2.08906 | 12 ft | 12 kts | 162° |
| 2026-05-05 17:32 | 41.30300 | 2.08852 | 13 ft | 13 kts | 246° |
| 2026-05-05 17:32 | 41.30264 | 2.08749 | 13 ft | 14 kts | 245° |
| 2026-05-05 17:33 | 41.30240 | 2.08677 | 13 ft | 15 kts | 245° |
| 2026-05-05 17:33 | 41.30223 | 2.08629 | 13 ft | 0 kts | 245° |
| 2026-05-05 17:35 | 41.30221 | 2.08624 | 13 ft | 2 kts | 246° |
| 2026-05-05 17:35 | 41.30216 | 2.08608 | 13 ft | 3 kts | 246° |
| 2026-05-05 17:36 | 41.30198 | 2.08558 | 14 ft | 10 kts | 240° |
| 2026-05-05 17:36 | 41.30164 | 2.08453 | 14 ft | 16 kts | 244° |
| 2026-05-05 17:36 | 41.30123 | 2.08335 | 14 ft | 11 kts | 245° |
| 2026-05-05 17:36 | 41.30077 | 2.08250 | 13 ft | 11 kts | 193° |
| 2026-05-05 17:37 | 41.29999 | 2.08288 | 13 ft | 7 kts | 156° |
| 2026-05-05 17:37 | 41.29986 | 2.08296 | 13 ft | 0 kts | 156° |
| 2026-05-05 17:39 | 41.29982 | 2.08298 | 13 ft | 4 kts | 155° |
| 2026-05-05 17:39 | 41.29927 | 2.08332 | 17 ft | 11 kts | 155° |
| 2026-05-05 17:39 | 41.29855 | 2.08376 | 18 ft | 13 kts | 155° |
| 2026-05-05 17:40 | 41.29749 | 2.08439 | 11 ft | 20 kts | 155° |
| 2026-05-05 17:40 | 41.29618 | 2.08518 | 12 ft | 21 kts | 156° |
| 2026-05-05 17:40 | 41.29476 | 2.08603 | 9 ft | 24 kts | 156° |
| 2026-05-05 17:40 | 41.29325 | 2.08695 | 12 ft | 24 kts | 155° |
| 2026-05-05 17:41 | 41.29170 | 2.08788 | 10 ft | 24 kts | 156° |
| 2026-05-05 17:41 | 41.29037 | 2.08868 | 10 ft | 20 kts | 155° |
| 2026-05-05 17:41 | 41.28944 | 2.08942 | 11 ft | 12 kts | 105° |
| 2026-05-05 17:41 | 41.28975 | 2.09060 | 11 ft | 19 kts | 65° |
| 2026-05-05 17:42 | 41.29045 | 2.09265 | 11 ft | 26 kts | 66° |
| 2026-05-05 17:42 | 41.29122 | 2.09494 | 11 ft | 28 kts | 64° |
| 2026-05-05 17:42 | 41.29206 | 2.09734 | 11 ft | 29 kts | 66° |
| 2026-05-05 17:42 | 41.29262 | 2.09898 | 11 ft | 12 kts | 66° |
| 2026-05-05 17:43 | 41.29254 | 2.09973 | 10 ft | 0 kts | 136° |
| 2026-05-05 17:43 | 41.29255 | 2.09979 | 10 ft | 2 kts | 82° |
| 2026-05-05 17:43 | 41.29262 | 2.10062 | 9 ft | 15 kts | 110° |
| 2026-05-05 17:43 | 41.29222 | 2.10184 | 10 ft | 13 kts | 134° |
| 2026-05-05 17:44 | 41.29144 | 2.10106 | 11 ft | 40 kts | 246° |
| 2026-05-05 17:44 | 41.29015 | 2.09714 | 13 ft | 100 kts | 245° |
| 2026-05-05 17:44 | 41.28627 | 2.08590 | 315 ft | 151 kts | 243° |
| 2026-05-05 17:44 | 41.27968 | 2.07412 | 1210 ft | 180 kts | 208° |
| 2026-05-05 17:45 | 41.26662 | 2.07152 | 2392 ft | 199 kts | 189° |
| 2026-05-05 17:45 | 41.25271 | 2.06718 | 3760 ft | 211 kts | 201° |
| 2026-05-05 17:45 | 41.23908 | 2.06077 | 5396 ft | 212 kts | 202° |
| 2026-05-05 17:45 | 41.22492 | 2.05457 | 6979 ft | 217 kts | 199° |
| 2026-05-05 17:46 | 41.21044 | 2.04865 | 8549 ft | 219 kts | 200° |
| 2026-05-05 17:46 | 41.19577 | 2.04231 | 10092 ft | 223 kts | 201° |
| 2026-05-05 17:46 | 41.18123 | 2.03490 | 11467 ft | 225 kts | 213° |
| 2026-05-05 17:46 | 41.17091 | 2.01989 | 12895 ft | 223 kts | 238° |
| 2026-05-05 17:47 | 41.16352 | 2.00182 | 14247 ft | 224 kts | 235° |
| 2026-05-05 17:47 | 41.15614 | 1.98257 | 15022 ft | 250 kts | 247° |
| 2026-05-05 17:47 | 41.15100 | 1.95918 | 15685 ft | 278 kts | 250° |
| 2026-05-05 17:47 | 41.14556 | 1.93326 | 16405 ft | 303 kts | 250° |
| 2026-05-05 17:48 | 41.13947 | 1.90635 | 17775 ft | 305 kts | 249° |
| 2026-05-05 17:48 | 41.13298 | 1.87867 | 18664 ft | 322 kts | 250° |
| 2026-05-05 17:48 | 41.12662 | 1.85027 | 19936 ft | 319 kts | 249° |
| 2026-05-05 17:48 | 41.12026 | 1.82204 | 21192 ft | 320 kts | 249° |
| 2026-05-05 17:49 | 41.11384 | 1.79383 | 22492 ft | 316 kts | 248° |
| 2026-05-05 17:49 | 41.10749 | 1.76603 | 23722 ft | 316 kts | 248° |
| 2026-05-05 17:49 | 41.10108 | 1.73800 | 24601 ft | 319 kts | 248° |
| 2026-05-05 17:49 | 41.09466 | 1.70975 | 25506 ft | 320 kts | 248° |
| 2026-05-05 17:50 | 41.08828 | 1.68175 | 26361 ft | 323 kts | 248° |
| 2026-05-05 17:50 | 41.08167 | 1.65287 | 27215 ft | 325 kts | 248° |
| 2026-05-05 17:50 | 41.07516 | 1.62445 | 28026 ft | 327 kts | 248° |
| 2026-05-05 17:50 | 41.06851 | 1.59545 | 28818 ft | 330 kts | 248° |
| 2026-05-05 17:51 | 41.06180 | 1.56620 | 29597 ft | 333 kts | 248° |
| 2026-05-05 17:51 | 41.05502 | 1.53674 | 30285 ft | 336 kts | 248° |
| 2026-05-05 17:51 | 41.04817 | 1.50698 | 30888 ft | 340 kts | 249° |
| 2026-05-05 17:51 | 41.04120 | 1.47671 | 31389 ft | 346 kts | 248° |
| 2026-05-05 17:52 | 41.03411 | 1.44598 | 31893 ft | 351 kts | 248° |
| 2026-05-05 17:52 | 41.02691 | 1.41484 | 32374 ft | 356 kts | 248° |
| 2026-05-05 17:52 | 41.01962 | 1.38331 | 32839 ft | 361 kts | 248° |
| 2026-05-05 17:52 | 41.01256 | 1.35166 | 33451 ft | 363 kts | 251° |
| 2026-05-05 17:53 | 41.00568 | 1.31951 | 34111 ft | 363 kts | 251° |
| 2026-05-05 17:53 | 40.99808 | 1.28719 | 34658 ft | 364 kts | 250° |
| 2026-05-05 17:53 | 40.99042 | 1.25558 | 35194 ft | 365 kts | 250° |
| 2026-05-05 17:53 | 40.98292 | 1.22346 | 35735 ft | 366 kts | 251° |
| 2026-05-05 17:54 | 40.97551 | 1.19115 | 36269 ft | 367 kts | 251° |
| 2026-05-05 17:54 | 40.96797 | 1.15881 | 36791 ft | 368 kts | 251° |
| 2026-05-05 17:54 | 40.96033 | 1.12638 | 37234 ft | 372 kts | 251° |
| 2026-05-05 17:54 | 40.95259 | 1.09345 | 37595 ft | 376 kts | 251° |
| 2026-05-05 17:55 | 40.94486 | 1.06039 | 38119 ft | 377 kts | 251° |
| 2026-05-05 17:55 | 40.93706 | 1.02720 | 38590 ft | 378 kts | 251° |
| 2026-05-05 17:55 | 40.92923 | 0.99397 | 38973 ft | 379 kts | 251° |
| 2026-05-05 17:55 | 40.92135 | 0.96057 | 39343 ft | 381 kts | 251° |
| 2026-05-05 17:56 | 40.91352 | 0.92739 | 39701 ft | 382 kts | 252° |
| 2026-05-05 17:56 | 40.90547 | 0.89336 | 40068 ft | 383 kts | 252° |
| 2026-05-05 17:56 | 40.89764 | 0.86028 | 40508 ft | 382 kts | 252° |
| 2026-05-05 17:56 | 40.88967 | 0.82668 | 40862 ft | 384 kts | 252° |
| 2026-05-05 17:57 | 40.88157 | 0.79263 | 40905 ft | 393 kts | 252° |
| 2026-05-05 17:57 | 40.87413 | 0.75732 | 40944 ft | 404 kts | 257° |
| 2026-05-05 17:57 | 40.86993 | 0.72006 | 40937 ft | 416 kts | 263° |
| 2026-05-05 17:57 | 40.86918 | 0.68139 | 40938 ft | 427 kts | 268° |
| 2026-05-05 17:58 | 40.86959 | 0.64167 | 40934 ft | 437 kts | 268° |
| 2026-05-05 17:58 | 40.87003 | 0.56061 | 40929 ft | 434 kts | 268° |
| 2026-05-05 17:59 | 40.87059 | 0.48242 | 40920 ft | 425 kts | 268° |
| 2026-05-05 17:59 | 40.87097 | 0.40348 | 40927 ft | 434 kts | 268° |
| 2026-05-05 18:00 | 40.87140 | 0.32313 | 40938 ft | 439 kts | 268° |
| 2026-05-05 18:00 | 40.87172 | 0.24267 | 40939 ft | 436 kts | 268° |
| 2026-05-05 18:01 | 40.87200 | 0.16288 | 40936 ft | 432 kts | 268° |
| 2026-05-05 18:01 | 40.87222 | 0.08375 | 40932 ft | 430 kts | 268° |
| 2026-05-05 18:02 | 40.87238 | 0.00482 | 40937 ft | 434 kts | 268° |
| 2026-05-05 18:02 | 40.87249 | -0.07551 | 40936 ft | 439 kts | 268° |
| 2026-05-05 18:03 | 40.87255 | -0.15654 | 40941 ft | 441 kts | 268° |
| 2026-05-05 18:03 | 40.87255 | -0.23752 | 40939 ft | 439 kts | 268° |
| 2026-05-05 18:04 | 40.87250 | -0.31808 | 40935 ft | 437 kts | 268° |
| 2026-05-05 18:04 | 40.87238 | -0.39774 | 40932 ft | 435 kts | 268° |
| 2026-05-05 18:05 | 40.87221 | -0.47770 | 40931 ft | 436 kts | 268° |
| 2026-05-05 18:05 | 40.87199 | -0.55813 | 40935 ft | 438 kts | 268° |
| 2026-05-05 18:06 | 40.87171 | -0.63892 | 40943 ft | 441 kts | 268° |
| 2026-05-05 18:06 | 40.87137 | -0.71936 | 40943 ft | 440 kts | 268° |
| 2026-05-05 18:07 | 40.86614 | -0.79952 | 40938 ft | 436 kts | 257° |
| 2026-05-05 18:07 | 40.84805 | -0.87575 | 40940 ft | 435 kts | 250° |
| 2026-05-05 18:08 | 40.82741 | -0.95074 | 40941 ft | 433 kts | 250° |
| 2026-05-05 18:08 | 40.81014 | -1.01301 | 40940 ft | 434 kts | 250° |
| 2026-05-05 18:09 | 40.78930 | -1.08792 | 40940 ft | 436 kts | 250° |
| 2026-05-05 18:09 | 40.76494 | -1.17535 | 40942 ft | 438 kts | 250° |
| 2026-05-05 18:10 | 40.74721 | -1.23872 | 40942 ft | 441 kts | 250° |
| 2026-05-05 18:10 | 40.72603 | -1.31428 | 40941 ft | 442 kts | 250° |
| 2026-05-05 18:11 | 40.70471 | -1.39009 | 40942 ft | 440 kts | 250° |
| 2026-05-05 18:11 | 40.68345 | -1.46550 | 40938 ft | 438 kts | 250° |
| 2026-05-05 18:12 | 40.66221 | -1.54058 | 40943 ft | 436 kts | 250° |
| 2026-05-05 18:12 | 40.64088 | -1.61577 | 40946 ft | 440 kts | 250° |
| 2026-05-05 18:13 | 40.61948 | -1.69096 | 40945 ft | 443 kts | 250° |
| 2026-05-05 18:13 | 40.59777 | -1.76705 | 40948 ft | 442 kts | 250° |
| 2026-05-05 18:14 | 40.57614 | -1.84263 | 40945 ft | 440 kts | 250° |
| 2026-05-05 18:14 | 40.55456 | -1.91781 | 40946 ft | 438 kts | 250° |
| 2026-05-05 18:15 | 40.53293 | -1.99297 | 40947 ft | 440 kts | 250° |
| 2026-05-05 18:15 | 40.51113 | -2.06845 | 40949 ft | 443 kts | 250° |
| 2026-05-05 18:16 | 40.48916 | -2.14420 | 40943 ft | 444 kts | 250° |
| 2026-05-05 18:16 | 40.46712 | -2.21999 | 40945 ft | 443 kts | 250° |
| 2026-05-05 18:17 | 40.44520 | -2.29512 | 40931 ft | 441 kts | 250° |
| 2026-05-05 18:17 | 40.42321 | -2.37027 | 40926 ft | 439 kts | 250° |
| 2026-05-05 18:18 | 40.40128 | -2.44503 | 40925 ft | 438 kts | 250° |
| 2026-05-05 18:18 | 40.37955 | -2.51914 | 40923 ft | 438 kts | 251° |
| 2026-05-05 18:19 | 40.36594 | -2.59678 | 40927 ft | 438 kts | 261° |
| 2026-05-05 18:19 | 40.35673 | -2.67588 | 40935 ft | 440 kts | 261° |
| 2026-05-05 18:20 | 40.34741 | -2.75535 | 40936 ft | 442 kts | 261° |
| 2026-05-05 18:20 | 40.33802 | -2.83513 | 40931 ft | 443 kts | 261° |
| 2026-05-05 18:21 | 40.32855 | -2.91492 | 40936 ft | 442 kts | 261° |
| 2026-05-05 18:21 | 40.31912 | -2.99402 | 40934 ft | 441 kts | 261° |
| 2026-05-05 18:22 | 40.30960 | -3.07329 | 40939 ft | 439 kts | 261° |
| 2026-05-05 18:22 | 40.30008 | -3.15219 | 40937 ft | 438 kts | 261° |
| 2026-05-05 18:23 | 40.29052 | -3.23092 | 40939 ft | 437 kts | 261° |
| 2026-05-05 18:23 | 40.28089 | -3.30975 | 40939 ft | 439 kts | 261° |
| 2026-05-05 18:24 | 40.27117 | -3.38881 | 40940 ft | 440 kts | 261° |
| 2026-05-05 18:24 | 40.26137 | -3.46811 | 40961 ft | 442 kts | 261° |
| 2026-05-05 18:25 | 40.25148 | -3.54775 | 40966 ft | 443 kts | 261° |
| 2026-05-05 18:25 | 40.24155 | -3.62709 | 40970 ft | 440 kts | 261° |
| 2026-05-05 18:26 | 40.23165 | -3.70592 | 40964 ft | 438 kts | 261° |
| 2026-05-05 18:26 | 40.22178 | -3.78393 | 40933 ft | 436 kts | 261° |
| 2026-05-05 18:27 | 40.21179 | -3.86248 | 40935 ft | 438 kts | 261° |
| 2026-05-05 18:27 | 40.20170 | -3.94141 | 40938 ft | 441 kts | 261° |
| 2026-05-05 18:28 | 40.18638 | -4.06041 | 40940 ft | 442 kts | 261° |
| 2026-05-05 18:28 | 40.17612 | -4.13946 | 40931 ft | 439 kts | 261° |
| 2026-05-05 18:29 | 40.16596 | -4.21738 | 40928 ft | 436 kts | 261° |
| 2026-05-05 18:29 | 40.15575 | -4.29529 | 40929 ft | 434 kts | 261° |
| 2026-05-05 18:30 | 40.14547 | -4.37330 | 40934 ft | 436 kts | 261° |
| 2026-05-05 18:30 | 40.13508 | -4.45165 | 40936 ft | 438 kts | 261° |
| 2026-05-05 18:31 | 40.12462 | -4.53023 | 40938 ft | 440 kts | 260° |
| 2026-05-05 18:31 | 40.11392 | -4.60891 | 40937 ft | 439 kts | 261° |
| 2026-05-05 18:32 | 40.10376 | -4.68772 | 40937 ft | 439 kts | 261° |
| 2026-05-05 18:32 | 40.09291 | -4.76570 | 40937 ft | 439 kts | 261° |
| 2026-05-05 18:33 | 40.08239 | -4.84419 | 40932 ft | 438 kts | 261° |
| 2026-05-05 18:33 | 40.07158 | -4.92260 | 40931 ft | 438 kts | 261° |
| 2026-05-05 18:34 | 40.06086 | -5.00084 | 40931 ft | 437 kts | 261° |
| 2026-05-05 18:34 | 40.05004 | -5.07891 | 40932 ft | 437 kts | 261° |
| 2026-05-05 18:35 | 40.03921 | -5.15692 | 40934 ft | 436 kts | 261° |
| 2026-05-05 18:35 | 40.02832 | -5.23489 | 40936 ft | 436 kts | 261° |
| 2026-05-05 18:36 | 40.01739 | -5.31273 | 40935 ft | 435 kts | 261° |
| 2026-05-05 18:36 | 40.00648 | -5.38998 | 40939 ft | 436 kts | 261° |
| 2026-05-05 18:37 | 39.99544 | -5.46791 | 40940 ft | 438 kts | 261° |
| 2026-05-05 18:37 | 39.98425 | -5.54636 | 40935 ft | 440 kts | 261° |
| 2026-05-05 18:38 | 39.97296 | -5.62498 | 40939 ft | 442 kts | 260° |
| 2026-05-05 18:38 | 39.96159 | -5.70366 | 40937 ft | 440 kts | 260° |
| 2026-05-05 18:39 | 39.95031 | -5.78191 | 40937 ft | 438 kts | 260° |
| 2026-05-05 18:39 | 39.93894 | -5.85992 | 40939 ft | 437 kts | 260° |
| 2026-05-05 18:40 | 39.92759 | -5.93768 | 40941 ft | 437 kts | 260° |
| 2026-05-05 18:40 | 39.91621 | -6.01511 | 40944 ft | 439 kts | 260° |
| 2026-05-05 18:41 | 39.90465 | -6.09345 | 40941 ft | 441 kts | 260° |
| 2026-05-05 18:41 | 39.89299 | -6.17211 | 40946 ft | 443 kts | 260° |
| 2026-05-05 18:42 | 39.88124 | -6.25089 | 40948 ft | 442 kts | 260° |
| 2026-05-05 18:42 | 39.86949 | -6.32937 | 40946 ft | 441 kts | 260° |
| 2026-05-05 18:43 | 39.85104 | -6.40546 | 40932 ft | 442 kts | 248° |
| 2026-05-05 18:43 | 39.82015 | -6.47464 | 40944 ft | 444 kts | 237° |
| 2026-05-05 18:44 | 39.78389 | -6.53983 | 40953 ft | 445 kts | 237° |
| 2026-05-05 18:44 | 39.74708 | -6.60474 | 40956 ft | 447 kts | 237° |
| 2026-05-05 18:45 | 39.71041 | -6.66950 | 40962 ft | 449 kts | 237° |
| 2026-05-05 18:45 | 39.67343 | -6.73489 | 40967 ft | 449 kts | 236° |
| 2026-05-05 18:46 | 39.63641 | -6.80005 | 40969 ft | 447 kts | 236° |
| 2026-05-05 18:46 | 39.59958 | -6.86483 | 40954 ft | 445 kts | 236° |
| 2026-05-05 18:47 | 39.56287 | -6.92923 | 40964 ft | 443 kts | 236° |
| 2026-05-05 18:47 | 39.52622 | -6.99342 | 40969 ft | 444 kts | 236° |
| 2026-05-05 18:48 | 39.48935 | -7.05784 | 40977 ft | 445 kts | 236° |
| 2026-05-05 18:48 | 39.45262 | -7.12191 | 40979 ft | 447 kts | 236° |
| 2026-05-05 18:49 | 39.41551 | -7.18648 | 40987 ft | 448 kts | 236° |
| 2026-05-05 18:49 | 39.37827 | -7.25118 | 40978 ft | 448 kts | 236° |
| 2026-05-05 18:50 | 39.34104 | -7.31571 | 41002 ft | 446 kts | 236° |
| 2026-05-05 18:50 | 39.30395 | -7.37986 | 41003 ft | 445 kts | 236° |
| 2026-05-05 18:51 | 39.26701 | -7.44365 | 40988 ft | 443 kts | 236° |
| 2026-05-05 18:51 | 39.23009 | -7.50725 | 40995 ft | 442 kts | 236° |
| 2026-05-05 18:52 | 39.19335 | -7.57045 | 41005 ft | 444 kts | 236° |
| 2026-05-05 18:52 | 39.15609 | -7.63439 | 41011 ft | 446 kts | 236° |
| 2026-05-05 18:53 | 39.11863 | -7.69856 | 41013 ft | 448 kts | 236° |
| 2026-05-05 18:53 | 39.08110 | -7.76274 | 41015 ft | 448 kts | 236° |
| 2026-05-05 18:54 | 39.04374 | -7.82640 | 40959 ft | 445 kts | 236° |
| 2026-05-05 18:54 | 39.01298 | -7.87884 | 41043 ft | 441 kts | 236° |
| 2026-05-05 18:55 | 38.97579 | -7.94201 | 41024 ft | 444 kts | 236° |
| 2026-05-05 18:55 | 38.93834 | -8.00559 | 41026 ft | 446 kts | 236° |
| 2026-05-05 18:56 | 38.90077 | -8.06917 | 41034 ft | 446 kts | 236° |
| 2026-05-05 18:56 | 38.86318 | -8.13269 | 41032 ft | 445 kts | 236° |
| 2026-05-05 18:57 | 38.82597 | -8.19543 | 41021 ft | 444 kts | 235° |
| 2026-05-05 18:57 | 38.78857 | -8.25839 | 41022 ft | 443 kts | 235° |
| 2026-05-05 18:58 | 38.75114 | -8.32126 | 41021 ft | 442 kts | 235° |
| 2026-05-05 18:58 | 38.71387 | -8.38377 | 41035 ft | 442 kts | 235° |
| 2026-05-05 18:59 | 38.67646 | -8.44636 | 41033 ft | 443 kts | 235° |
| 2026-05-05 18:59 | 38.63888 | -8.50913 | 41038 ft | 444 kts | 235° |
| 2026-05-05 19:00 | 38.60123 | -8.57188 | 41039 ft | 445 kts | 235° |
| 2026-05-05 19:00 | 38.56349 | -8.63468 | 41044 ft | 445 kts | 235° |
| 2026-05-05 19:01 | 38.52593 | -8.69703 | 41047 ft | 443 kts | 235° |
| 2026-05-05 19:01 | 38.48835 | -8.75931 | 41036 ft | 442 kts | 235° |
| 2026-05-05 19:02 | 38.45077 | -8.82148 | 41043 ft | 442 kts | 235° |
| 2026-05-05 19:02 | 38.41314 | -8.88360 | 41045 ft | 442 kts | 235° |
| 2026-05-05 19:03 | 38.37570 | -8.94529 | 41052 ft | 443 kts | 235° |
| 2026-05-05 19:03 | 38.33789 | -9.00748 | 41051 ft | 444 kts | 235° |
| 2026-05-05 19:04 | 38.30001 | -9.06966 | 41039 ft | 444 kts | 235° |
| 2026-05-05 19:04 | 38.26210 | -9.13177 | 41061 ft | 445 kts | 234° |
| 2026-05-05 19:05 | 38.22403 | -9.19403 | 41058 ft | 446 kts | 234° |
| 2026-05-05 19:05 | 38.18585 | -9.25634 | 41065 ft | 447 kts | 234° |
| 2026-05-05 19:06 | 38.14759 | -9.31866 | 41069 ft | 447 kts | 234° |
| 2026-05-05 19:06 | 38.10934 | -9.38084 | 41069 ft | 445 kts | 234° |
| 2026-05-05 19:07 | 38.07147 | -9.44230 | 41078 ft | 444 kts | 234° |
| 2026-05-05 19:07 | 38.03345 | -9.50389 | 41072 ft | 443 kts | 234° |
| 2026-05-05 19:08 | 37.99533 | -9.56552 | 41082 ft | 444 kts | 234° |
| 2026-05-05 19:08 | 37.95706 | -9.62728 | 41081 ft | 445 kts | 234° |
| 2026-05-05 19:09 | 37.91877 | -9.68895 | 41090 ft | 446 kts | 234° |
| 2026-05-05 19:09 | 37.88033 | -9.75074 | 41089 ft | 447 kts | 234° |
| 2026-05-05 19:10 | 37.84208 | -9.81212 | 41090 ft | 447 kts | 234° |
| 2026-05-05 19:10 | 37.80344 | -9.87400 | 41102 ft | 448 kts | 234° |
| 2026-05-05 19:11 | 37.76471 | -9.93592 | 41083 ft | 449 kts | 234° |
| 2026-05-05 19:11 | 37.72593 | -9.99778 | 41095 ft | 448 kts | 234° |
| 2026-05-05 19:12 | 37.68729 | -10.05933 | 41093 ft | 446 kts | 234° |
| 2026-05-05 19:12 | 37.64870 | -10.12066 | 41092 ft | 445 kts | 234° |
| 2026-05-05 19:13 | 37.61041 | -10.18142 | 41093 ft | 444 kts | 234° |
| 2026-05-05 19:13 | 37.57195 | -10.24233 | 41095 ft | 445 kts | 234° |
| 2026-05-05 19:14 | 37.53323 | -10.30355 | 41102 ft | 448 kts | 234° |
| 2026-05-05 19:14 | 37.49417 | -10.36518 | 41088 ft | 450 kts | 233° |
| 2026-05-05 19:15 | 37.45515 | -10.42662 | 41108 ft | 448 kts | 233° |
| 2026-05-05 19:15 | 37.41645 | -10.48746 | 41103 ft | 447 kts | 233° |
| 2026-05-05 19:16 | 37.37766 | -10.54832 | 41105 ft | 445 kts | 233° |
| 2026-05-05 19:16 | 37.33893 | -10.60899 | 41107 ft | 445 kts | 233° |
| 2026-05-05 19:17 | 37.29998 | -10.66990 | 41110 ft | 449 kts | 233° |
| 2026-05-05 19:17 | 37.26065 | -10.73126 | 41117 ft | 451 kts | 233° |
| 2026-05-05 19:18 | 37.22128 | -10.79257 | 41105 ft | 450 kts | 233° |
| 2026-05-05 19:18 | 37.18199 | -10.85265 | 41107 ft | 446 kts | 231° |
| 2026-05-05 19:19 | 37.14327 | -10.91326 | 41112 ft | 444 kts | 232° |
| 2026-05-05 19:19 | 37.10423 | -10.97356 | 41110 ft | 447 kts | 231° |
| 2026-05-05 19:20 | 37.06494 | -11.03433 | 41118 ft | 451 kts | 232° |
| 2026-05-05 19:20 | 37.02533 | -11.09549 | 41115 ft | 451 kts | 232° |
| 2026-05-05 19:21 | 36.98585 | -11.15628 | 41113 ft | 449 kts | 232° |
| 2026-05-05 19:21 | 36.94650 | -11.21684 | 41122 ft | 447 kts | 232° |
| 2026-05-05 19:22 | 36.90757 | -11.27658 | 41116 ft | 446 kts | 231° |
| 2026-05-05 19:22 | 36.86834 | -11.33670 | 41123 ft | 447 kts | 231° |
| 2026-05-05 19:23 | 36.82886 | -11.39708 | 41123 ft | 450 kts | 231° |
| 2026-05-05 19:23 | 36.78906 | -11.45783 | 41119 ft | 452 kts | 231° |
| 2026-05-05 19:24 | 36.74926 | -11.51849 | 41124 ft | 451 kts | 231° |
| 2026-05-05 19:24 | 36.70957 | -11.57888 | 41118 ft | 449 kts | 231° |
| 2026-05-05 19:25 | 36.66992 | -11.63909 | 41123 ft | 448 kts | 231° |
| 2026-05-05 19:25 | 36.63073 | -11.69850 | 41123 ft | 446 kts | 231° |
| 2026-05-05 19:26 | 36.59136 | -11.75807 | 41124 ft | 446 kts | 231° |
| 2026-05-05 19:26 | 36.55176 | -11.81788 | 41128 ft | 448 kts | 231° |
| 2026-05-05 19:27 | 36.51199 | -11.87784 | 41129 ft | 450 kts | 231° |
| 2026-05-05 19:27 | 36.47198 | -11.93804 | 41124 ft | 451 kts | 231° |
| 2026-05-05 19:28 | 36.43206 | -11.99803 | 41129 ft | 450 kts | 231° |
| 2026-05-05 19:28 | 36.39217 | -12.05785 | 41125 ft | 448 kts | 231° |
| 2026-05-05 19:29 | 36.35240 | -12.11741 | 41128 ft | 448 kts | 231° |
| 2026-05-05 19:29 | 36.31261 | -12.17685 | 41133 ft | 447 kts | 231° |
| 2026-05-05 19:30 | 36.27310 | -12.23581 | 41131 ft | 447 kts | 231° |
| 2026-05-05 19:30 | 36.23332 | -12.29505 | 41134 ft | 447 kts | 231° |
| 2026-05-05 19:31 | 36.19352 | -12.35422 | 41135 ft | 447 kts | 230° |
| 2026-05-05 19:31 | 36.15372 | -12.41327 | 41135 ft | 447 kts | 231° |
| 2026-05-05 19:32 | 36.11370 | -12.47257 | 41130 ft | 451 kts | 231° |
| 2026-05-05 19:32 | 36.07329 | -12.53230 | 41136 ft | 452 kts | 230° |
| 2026-05-05 19:33 | 36.03219 | -12.59009 | 41144 ft | 448 kts | 228° |
| 2026-05-05 19:33 | 35.99014 | -12.64679 | 41138 ft | 445 kts | 228° |
| 2026-05-05 19:34 | 35.94827 | -12.70334 | 41135 ft | 447 kts | 228° |
| 2026-05-05 19:35 | 35.88516 | -12.78821 | 41139 ft | 451 kts | 228° |
| 2026-05-05 19:35 | 35.84257 | -12.84540 | 41138 ft | 454 kts | 228° |
| 2026-05-05 19:36 | 35.79984 | -12.90266 | 41117 ft | 453 kts | 228° |
| 2026-05-05 19:36 | 35.75747 | -12.95936 | 41137 ft | 448 kts | 228° |
| 2026-05-05 19:37 | 35.71540 | -13.01558 | 41133 ft | 445 kts | 228° |
| 2026-05-05 19:37 | 35.67322 | -13.07182 | 41135 ft | 448 kts | 228° |
| 2026-05-05 19:38 | 35.63083 | -13.12825 | 41135 ft | 450 kts | 228° |
| 2026-05-05 19:38 | 35.58819 | -13.18493 | 41133 ft | 453 kts | 228° |
| 2026-05-05 19:39 | 35.54566 | -13.24134 | 41137 ft | 453 kts | 228° |
| 2026-05-05 19:39 | 35.50304 | -13.29777 | 41128 ft | 450 kts | 227° |
| 2026-05-05 19:40 | 35.47519 | -13.33514 | 41145 ft | 447 kts | 230° |
| 2026-05-05 19:40 | 35.43294 | -13.39123 | 41152 ft | 448 kts | 229° |
| 2026-05-05 19:41 | 35.39749 | -13.43761 | 41149 ft | 447 kts | 230° |
| 2026-05-05 19:41 | 35.35523 | -13.49359 | 41149 ft | 447 kts | 229° |
| 2026-05-05 19:42 | 35.31266 | -13.54938 | 41147 ft | 448 kts | 229° |
| 2026-05-05 19:42 | 35.27044 | -13.60490 | 41145 ft | 449 kts | 229° |
| 2026-05-05 19:43 | 35.22773 | -13.66082 | 41148 ft | 450 kts | 229° |
| 2026-05-05 19:43 | 35.18490 | -13.71687 | 41148 ft | 450 kts | 229° |
| 2026-05-05 19:44 | 35.14200 | -13.77289 | 41149 ft | 451 kts | 229° |
| 2026-05-05 19:44 | 35.09907 | -13.82887 | 41150 ft | 451 kts | 229° |
| 2026-05-05 19:45 | 35.05635 | -13.88449 | 41155 ft | 452 kts | 229° |
| 2026-05-05 19:45 | 35.01320 | -13.94057 | 41156 ft | 454 kts | 229° |
| 2026-05-05 19:46 | 34.96995 | -13.99669 | 41151 ft | 453 kts | 229° |
| 2026-05-05 19:46 | 34.92690 | -14.05246 | 41131 ft | 451 kts | 229° |
| 2026-05-05 19:47 | 34.88403 | -14.10789 | 41143 ft | 448 kts | 229° |
| 2026-05-05 19:47 | 34.84134 | -14.16303 | 41137 ft | 446 kts | 229° |
| 2026-05-05 19:48 | 34.79874 | -14.21794 | 41145 ft | 447 kts | 229° |
| 2026-05-05 19:48 | 34.75617 | -14.27272 | 41143 ft | 449 kts | 229° |
| 2026-05-05 19:49 | 34.71310 | -14.32806 | 41145 ft | 452 kts | 229° |
| 2026-05-05 19:49 | 34.66978 | -14.38365 | 41145 ft | 453 kts | 229° |
| 2026-05-05 19:50 | 34.62644 | -14.43914 | 41141 ft | 451 kts | 229° |
| 2026-05-05 19:50 | 34.58368 | -14.49381 | 41135 ft | 447 kts | 229° |
| 2026-05-05 19:51 | 34.54086 | -14.54849 | 41134 ft | 445 kts | 229° |
| 2026-05-05 19:51 | 34.49809 | -14.60301 | 41139 ft | 447 kts | 229° |
| 2026-05-05 19:52 | 34.45505 | -14.65778 | 41138 ft | 450 kts | 229° |
| 2026-05-05 19:52 | 34.41168 | -14.71288 | 41142 ft | 452 kts | 229° |
| 2026-05-05 19:53 | 34.36827 | -14.76794 | 41141 ft | 450 kts | 229° |
| 2026-05-05 19:53 | 34.32542 | -14.82222 | 41136 ft | 448 kts | 229° |
| 2026-05-05 19:54 | 34.28241 | -14.87660 | 41133 ft | 446 kts | 229° |
| 2026-05-05 19:54 | 34.23953 | -14.93073 | 41131 ft | 445 kts | 229° |
| 2026-05-05 19:55 | 34.19655 | -14.98492 | 41145 ft | 448 kts | 229° |
| 2026-05-05 19:55 | 34.15314 | -15.03955 | 41139 ft | 452 kts | 229° |
| 2026-05-05 19:56 | 34.10956 | -15.09430 | 41147 ft | 451 kts | 229° |
| 2026-05-05 19:56 | 34.06613 | -15.14878 | 41138 ft | 449 kts | 229° |
| 2026-05-05 19:57 | 34.02290 | -15.20293 | 41135 ft | 447 kts | 229° |
| 2026-05-05 19:57 | 33.98006 | -15.25651 | 41117 ft | 445 kts | 229° |
| 2026-05-05 19:58 | 33.93694 | -15.31035 | 41131 ft | 447 kts | 229° |
| 2026-05-05 19:58 | 33.89357 | -15.36442 | 41123 ft | 449 kts | 229° |
| 2026-05-05 19:58 | 33.87212 | -15.39115 | 40875 ft | 451 kts | 229° |
| 2026-05-05 19:59 | 33.85027 | -15.41832 | 40150 ft | 450 kts | 229° |
| 2026-05-05 19:59 | 33.82861 | -15.44523 | 39301 ft | 444 kts | 229° |
| 2026-05-05 19:59 | 33.80699 | -15.47165 | 38171 ft | 440 kts | 226° |
| 2026-05-05 19:59 | 33.78554 | -15.49765 | 36971 ft | 435 kts | 227° |
| 2026-05-05 20:00 | 33.76459 | -15.52347 | 35819 ft | 429 kts | 225° |
| 2026-05-05 20:00 | 33.74404 | -15.54909 | 34740 ft | 421 kts | 230° |
| 2026-05-05 20:00 | 33.72452 | -15.57496 | 33556 ft | 416 kts | 230° |
| 2026-05-05 20:00 | 33.70459 | -15.59996 | 32300 ft | 413 kts | 228° |
| 2026-05-05 20:01 | 33.68427 | -15.62419 | 31100 ft | 412 kts | 227° |
| 2026-05-05 20:01 | 33.66410 | -15.64877 | 29914 ft | 415 kts | 228° |
| 2026-05-05 20:01 | 33.64434 | -15.67357 | 29108 ft | 412 kts | 228° |
| 2026-05-05 20:01 | 33.62454 | -15.69826 | 28565 ft | 411 kts | 228° |
| 2026-05-05 20:02 | 33.60433 | -15.72303 | 28016 ft | 418 kts | 227° |
| 2026-05-05 20:02 | 33.58394 | -15.74800 | 27463 ft | 420 kts | 227° |
| 2026-05-05 20:02 | 33.56359 | -15.77300 | 26907 ft | 416 kts | 228° |
| 2026-05-05 20:02 | 33.54318 | -15.79738 | 26362 ft | 412 kts | 226° |
| 2026-05-05 20:03 | 33.52275 | -15.82131 | 25819 ft | 409 kts | 227° |
| 2026-05-05 20:03 | 33.50248 | -15.84518 | 25285 ft | 406 kts | 227° |
| 2026-05-05 20:03 | 33.48260 | -15.86853 | 24755 ft | 404 kts | 227° |
| 2026-05-05 20:03 | 33.46254 | -15.89207 | 24221 ft | 402 kts | 227° |
| 2026-05-05 20:04 | 33.44249 | -15.91546 | 23684 ft | 401 kts | 227° |
| 2026-05-05 20:04 | 33.42258 | -15.93872 | 23119 ft | 397 kts | 227° |
| 2026-05-05 20:04 | 33.40294 | -15.96171 | 22596 ft | 392 kts | 227° |
| 2026-05-05 20:04 | 33.38344 | -15.98451 | 22079 ft | 389 kts | 227° |
| 2026-05-05 20:05 | 33.36411 | -16.00709 | 21565 ft | 388 kts | 227° |
| 2026-05-05 20:05 | 33.34482 | -16.02960 | 21052 ft | 387 kts | 227° |
| 2026-05-05 20:05 | 33.32557 | -16.05204 | 20544 ft | 386 kts | 227° |
| 2026-05-05 20:05 | 33.30635 | -16.07444 | 20035 ft | 386 kts | 227° |
| 2026-05-05 20:06 | 33.28740 | -16.09650 | 19539 ft | 383 kts | 226° |
| 2026-05-05 20:06 | 33.26835 | -16.11867 | 19032 ft | 381 kts | 226° |
| 2026-05-05 20:06 | 33.24929 | -16.14060 | 18531 ft | 379 kts | 226° |
| 2026-05-05 20:06 | 33.23039 | -16.16252 | 17998 ft | 376 kts | 227° |
| 2026-05-05 20:07 | 33.21182 | -16.18447 | 17496 ft | 374 kts | 227° |
| 2026-05-05 20:07 | 33.19326 | -16.20610 | 17009 ft | 371 kts | 226° |
| 2026-05-05 20:07 | 33.17470 | -16.22745 | 16520 ft | 370 kts | 226° |
| 2026-05-05 20:07 | 33.15628 | -16.24875 | 16036 ft | 368 kts | 226° |
| 2026-05-05 20:08 | 33.13795 | -16.27004 | 15552 ft | 367 kts | 226° |
| 2026-05-05 20:08 | 33.11965 | -16.29127 | 15067 ft | 364 kts | 226° |
| 2026-05-05 20:08 | 33.10176 | -16.31198 | 14597 ft | 362 kts | 226° |
| 2026-05-05 20:08 | 33.08373 | -16.33281 | 14120 ft | 361 kts | 226° |
| 2026-05-05 20:09 | 33.06573 | -16.35360 | 13611 ft | 357 kts | 227° |
| 2026-05-05 20:09 | 33.04822 | -16.37385 | 13149 ft | 343 kts | 225° |
| 2026-05-05 20:09 | 33.03144 | -16.39310 | 12693 ft | 326 kts | 224° |
| 2026-05-05 20:09 | 33.01528 | -16.41112 | 12275 ft | 310 kts | 226° |
| 2026-05-05 20:10 | 33.00028 | -16.42895 | 11869 ft | 298 kts | 227° |
| 2026-05-05 20:10 | 32.98572 | -16.44620 | 11482 ft | 291 kts | 225° |
| 2026-05-05 20:10 | 32.97122 | -16.46279 | 11105 ft | 289 kts | 225° |
| 2026-05-05 20:10 | 32.95664 | -16.47940 | 10726 ft | 291 kts | 225° |
| 2026-05-05 20:11 | 32.94198 | -16.49630 | 10343 ft | 294 kts | 225° |
| 2026-05-05 20:11 | 32.92720 | -16.51328 | 9950 ft | 296 kts | 224° |
| 2026-05-05 20:11 | 32.91187 | -16.52942 | 9542 ft | 293 kts | 222° |
| 2026-05-05 20:11 | 32.89706 | -16.54534 | 9160 ft | 288 kts | 223° |
| 2026-05-05 20:12 | 32.88242 | -16.56110 | 8781 ft | 279 kts | 223° |
| 2026-05-05 20:12 | 32.86815 | -16.57634 | 8420 ft | 272 kts | 223° |
| 2026-05-05 20:12 | 32.85423 | -16.59116 | 8063 ft | 266 kts | 222° |
| 2026-05-05 20:12 | 32.84059 | -16.60571 | 7722 ft | 261 kts | 222° |
| 2026-05-05 20:13 | 32.82714 | -16.62000 | 7382 ft | 258 kts | 221° |
| 2026-05-05 20:13 | 32.81213 | -16.63199 | 7042 ft | 262 kts | 207° |
| 2026-05-05 20:13 | 32.79509 | -16.64005 | 6701 ft | 265 kts | 198° |
| 2026-05-05 20:13 | 32.77756 | -16.64695 | 6343 ft | 266 kts | 199° |
| 2026-05-05 20:14 | 32.76016 | -16.65401 | 5987 ft | 262 kts | 199° |
| 2026-05-05 20:14 | 32.74302 | -16.66095 | 5635 ft | 259 kts | 198° |
| 2026-05-05 20:14 | 32.72624 | -16.66777 | 5288 ft | 248 kts | 200° |
| 2026-05-05 20:14 | 32.71034 | -16.67444 | 5015 ft | 230 kts | 198° |
| 2026-05-05 20:15 | 32.69585 | -16.68017 | 4698 ft | 210 kts | 195° |
| 2026-05-05 20:15 | 32.68248 | -16.68542 | 4401 ft | 194 kts | 195° |
| 2026-05-05 20:15 | 32.67075 | -16.69041 | 4144 ft | 170 kts | 195° |
| 2026-05-05 20:15 | 32.66065 | -16.69455 | 3967 ft | 142 kts | 195° |
| 2026-05-05 20:16 | 32.65122 | -16.69834 | 3788 ft | 148 kts | 195° |
| 2026-05-05 20:16 | 32.64119 | -16.70187 | 3602 ft | 154 kts | 191° |
| 2026-05-05 20:16 | 32.63101 | -16.70714 | 3406 ft | 160 kts | 205° |
| 2026-05-05 20:16 | 32.62127 | -16.71358 | 3244 ft | 157 kts | 207° |
| 2026-05-05 20:17 | 32.61359 | -16.72232 | 3099 ft | 157 kts | 238° |
| 2026-05-05 20:17 | 32.60873 | -16.73401 | 2944 ft | 163 kts | 250° |
| 2026-05-05 20:17 | 32.60540 | -16.74673 | 2746 ft | 159 kts | 261° |
| 2026-05-05 20:17 | 32.60418 | -16.75967 | 2359 ft | 156 kts | 275° |
| 2026-05-05 20:18 | 32.60626 | -16.77177 | 2058 ft | 140 kts | 296° |
| 2026-05-05 20:18 | 32.61000 | -16.78258 | 1834 ft | 144 kts | 302° |
| 2026-05-05 20:18 | 32.61569 | -16.79190 | 1685 ft | 135 kts | 325° |
| 2026-05-05 20:18 | 32.62318 | -16.79844 | 1660 ft | 133 kts | 336° |
| 2026-05-05 20:19 | 32.63157 | -16.80271 | 1683 ft | 129 kts | 349° |
| 2026-05-05 20:19 | 32.64027 | -16.80506 | 1626 ft | 130 kts | 355° |
| 2026-05-05 20:19 | 32.64933 | -16.80544 | 1468 ft | 130 kts | 12° |
| 2026-05-05 20:19 | 32.65822 | -16.80408 | 1189 ft | 129 kts | 14° |
| 2026-05-05 20:20 | 32.66699 | -16.80254 | 837 ft | 124 kts | 12° |
| 2026-05-05 20:20 | 32.67479 | -16.79969 | 598 ft | 112 kts | 27° |
| 2026-05-05 20:20 | 32.68101 | -16.79428 | 435 ft | 116 kts | 44° |
| 2026-05-05 20:20 | 32.68715 | -16.78706 | 336 ft | 124 kts | 42° |
| 2026-05-05 20:21 | 32.69298 | -16.78015 | 174 ft | 102 kts | 42° |
| 2026-05-05 20:21 | 32.69578 | -16.77692 | 171 ft | 18 kts | 44° |
| 2026-05-05 20:21 | 32.69678 | -16.77576 | 171 ft | 24 kts | 43° |
| 2026-05-05 20:21 | 32.69835 | -16.77392 | 171 ft | 39 kts | 44° |
| 2026-05-05 20:22 | 32.69958 | -16.77222 | 171 ft | 14 kts | 87° |
| 2026-05-05 20:22 | 32.69885 | -16.77178 | 171 ft | 14 kts | 178° |
| 2026-05-05 20:22 | 32.69800 | -16.77226 | 171 ft | 14 kts | 227° |
| 2026-05-05 20:22 | 32.69728 | -16.77315 | 171 ft | 16 kts | 225° |
| 2026-05-05 20:23 | 32.69650 | -16.77412 | 171 ft | 17 kts | 226° |
| 2026-05-05 20:23 | 32.69564 | -16.77518 | 171 ft | 19 kts | 227° |
| 2026-05-05 20:23 | 32.69473 | -16.77633 | 171 ft | 20 kts | 226° |
| 2026-05-05 20:23 | 32.69375 | -16.77753 | 171 ft | 18 kts | 225° |
| 2026-05-05 20:24 | 32.69308 | -16.77836 | 171 ft | 7 kts | 227° |
| 2026-05-05 20:24 | 32.69269 | -16.77864 | 171 ft | 7 kts | 156° |
| 2026-05-05 20:24 | 32.69232 | -16.77827 | 171 ft | 0 kts | 137° |